createdAt,value
2024-02-03T00:01:14.688Z,7.10
2024-02-03T00:03:43.842Z,7.20
2024-02-03T00:06:12.883Z,7.20
2024-02-03T00:08:41.841Z,7.20
2024-02-03T00:11:11.919Z,7.20
2024-02-03T00:13:40.866Z,7.20
2024-02-03T00:16:11.519Z,7.20
2024-02-03T00:18:40.688Z,7.20
2024-02-03T00:21:10.911Z,7.20
2024-02-03T00:23:40.090Z,7.20
2024-02-03T00:26:09.078Z,7.20
2024-02-03T00:28:38.233Z,7.20
2024-02-03T00:31:07.457Z,7.10
2024-02-03T00:33:38.047Z,7.10
2024-02-03T00:36:07.736Z,7.10
2024-02-03T00:38:36.737Z,7.00
2024-02-03T00:41:05.978Z,7.00
2024-02-03T00:43:35.093Z,7.00
2024-02-03T00:46:04.028Z,7.00
2024-02-03T00:48:33.250Z,6.90
2024-02-03T00:51:06.972Z,6.90
2024-02-03T00:53:37.156Z,6.90
2024-02-03T00:56:07.054Z,6.90
2024-02-03T00:58:35.983Z,6.90
2024-02-03T01:01:05.790Z,6.80
2024-02-03T01:03:35.009Z,6.80
2024-02-03T01:06:06.703Z,6.80
2024-02-03T01:08:35.738Z,6.80
2024-02-03T01:11:05.073Z,6.80
2024-02-03T01:13:34.151Z,6.80
2024-02-03T01:16:03.167Z,6.80
2024-02-03T01:18:32.365Z,6.80
2024-02-03T01:21:01.549Z,6.80
2024-02-03T01:23:31.966Z,6.80
2024-02-03T01:26:01.524Z,6.90
2024-02-03T01:28:30.713Z,6.90
2024-02-03T01:30:59.835Z,6.90
2024-02-03T01:33:30.016Z,6.90
2024-02-03T01:35:59.095Z,6.90
2024-02-03T01:38:28.213Z,6.90
2024-02-03T01:40:58.957Z,7.00
2024-02-03T01:43:27.945Z,7.00
2024-02-03T01:45:57.080Z,7.10
2024-02-03T01:48:26.866Z,7.10
2024-02-03T01:50:56.331Z,7.10
2024-02-03T01:53:25.453Z,7.20
2024-02-03T01:55:55.386Z,7.20
2024-02-03T01:58:25.833Z,7.20
2024-02-03T02:00:55.705Z,7.30
2024-02-03T02:03:24.868Z,7.30
2024-02-03T02:05:53.930Z,7.30
2024-02-03T02:08:33.974Z,7.30
2024-02-03T02:11:03.897Z,7.30
2024-02-03T02:13:34.625Z,7.40
2024-02-03T02:16:03.919Z,7.40
2024-02-03T02:18:33.184Z,7.40
2024-02-03T02:21:03.702Z,7.40
2024-02-03T02:23:32.706Z,7.50
2024-02-03T02:26:02.355Z,7.50
2024-02-03T02:28:31.380Z,7.50
2024-02-03T02:31:00.484Z,7.50
2024-02-03T02:33:29.689Z,7.60
2024-02-03T02:35:58.763Z,7.60
2024-02-03T02:38:30.140Z,7.60
2024-02-03T02:40:59.334Z,7.70
2024-02-03T02:43:28.266Z,7.70
2024-02-03T02:45:57.945Z,7.60
2024-02-03T02:48:26.995Z,7.60
2024-02-03T02:50:56.135Z,7.60
2024-02-03T02:53:26.917Z,7.60
2024-02-03T02:56:01.213Z,7.70
2024-02-03T02:58:30.467Z,7.70
2024-02-03T03:00:59.531Z,7.70
2024-02-03T03:03:28.916Z,7.60
2024-02-03T03:05:59.437Z,7.60
2024-02-03T03:08:28.326Z,7.70
2024-02-03T03:10:58.904Z,7.70
2024-02-03T03:13:27.929Z,7.70
2024-02-03T03:15:56.951Z,7.70
2024-02-03T03:18:26.035Z,7.70
2024-02-03T03:20:55.222Z,7.70
2024-02-03T03:23:24.177Z,7.80
2024-02-03T03:25:53.317Z,7.70
2024-02-03T03:28:23.671Z,7.80
2024-02-03T03:30:52.734Z,7.80
2024-02-03T03:33:22.043Z,7.80
2024-02-03T03:35:51.203Z,7.80
2024-02-03T03:38:20.518Z,7.90
2024-02-03T03:40:49.723Z,7.90
2024-02-03T03:43:18.677Z,7.90
2024-02-03T03:45:49.974Z,7.90
2024-02-03T03:48:19.676Z,7.90
2024-02-03T03:50:49.623Z,7.90
2024-02-03T03:53:18.453Z,8.00
2024-02-03T03:55:47.376Z,8.00
2024-02-03T03:58:16.434Z,8.00
2024-02-03T04:00:46.033Z,8.10
2024-02-03T04:03:16.704Z,8.10
2024-02-03T04:05:45.787Z,8.10
2024-02-03T04:08:14.743Z,8.10
2024-02-03T04:10:44.037Z,8.10
2024-02-03T04:13:12.979Z,8.10
2024-02-03T04:15:41.976Z,8.10
2024-02-03T04:18:11.458Z,8.10
2024-02-03T04:20:42.043Z,8.10
2024-02-03T04:23:10.931Z,8.00
2024-02-03T04:25:39.870Z,8.00
2024-02-03T04:28:09.124Z,8.10
2024-02-03T04:30:38.390Z,8.10
2024-02-03T04:33:08.603Z,8.10
2024-02-03T04:35:37.592Z,8.10
2024-02-03T04:38:08.509Z,8.10
2024-02-03T04:40:39.173Z,8.10
2024-02-03T04:43:08.122Z,8.10
2024-02-03T04:45:37.155Z,8.20
2024-02-03T04:48:07.437Z,8.10
2024-02-03T04:50:36.408Z,8.20
2024-02-03T04:53:05.630Z,8.20
2024-02-03T04:55:36.105Z,8.20
2024-02-03T04:58:05.211Z,8.20
2024-02-03T05:00:34.212Z,8.30
2024-02-03T05:03:03.240Z,8.30
2024-02-03T05:05:32.113Z,8.30
2024-02-03T05:08:01.033Z,8.30
2024-02-03T05:10:29.974Z,8.40
2024-02-03T05:13:00.338Z,8.40
2024-02-03T05:15:29.446Z,8.40
2024-02-03T05:17:58.605Z,8.40
2024-02-03T05:20:27.645Z,8.40
2024-02-03T05:22:56.605Z,8.40
2024-02-03T05:25:25.493Z,8.40
2024-02-03T05:27:54.394Z,8.40
2024-02-03T05:30:24.797Z,8.40
2024-02-03T05:32:53.780Z,8.40
2024-02-03T05:35:22.690Z,8.40
2024-02-03T05:37:51.700Z,8.50
2024-02-03T05:40:22.561Z,8.50
2024-02-03T05:42:52.120Z,8.50
2024-02-03T05:45:23.494Z,8.50
2024-02-03T05:47:54.131Z,8.50
2024-02-03T05:50:23.041Z,8.60
2024-02-03T05:52:51.957Z,8.60
2024-02-03T05:55:20.874Z,8.60
2024-02-03T05:57:54.323Z,8.60
2024-02-03T06:00:24.382Z,8.60
2024-02-03T06:02:57.636Z,8.60
2024-02-03T06:05:26.778Z,8.60
2024-02-03T06:07:56.014Z,8.50
2024-02-03T06:10:25.086Z,8.50
2024-02-03T06:12:54.129Z,8.50
2024-02-03T06:15:23.526Z,8.40
2024-02-03T06:17:52.984Z,8.40
2024-02-03T06:20:23.447Z,8.30
2024-02-03T06:22:52.424Z,8.20
2024-02-03T06:25:21.349Z,8.20
2024-02-03T06:27:50.455Z,8.10
2024-02-03T06:30:19.774Z,8.10
2024-02-03T06:32:49.787Z,8.00
2024-02-03T06:35:18.875Z,7.90
2024-02-03T06:37:49.196Z,7.90
2024-02-03T06:40:19.929Z,7.90
2024-02-03T06:42:50.115Z,7.90
2024-02-03T06:45:19.286Z,7.90
2024-02-03T06:47:48.532Z,7.80
2024-02-03T06:50:17.713Z,7.80
2024-02-03T06:52:46.640Z,7.80
2024-02-03T06:55:17.457Z,7.80
2024-02-03T06:57:46.551Z,7.80
2024-02-03T07:00:16.473Z,7.80
2024-02-03T07:02:45.611Z,7.80
2024-02-03T07:05:14.742Z,7.80
2024-02-03T07:07:43.665Z,7.80
2024-02-03T07:10:12.802Z,7.80
2024-02-03T07:12:43.182Z,7.80
2024-02-03T07:15:12.522Z,7.80
2024-02-03T07:17:41.490Z,7.80
2024-02-03T07:20:12.558Z,7.80
2024-02-03T07:22:41.481Z,7.80
2024-02-03T07:25:12.202Z,7.80
2024-02-03T07:27:44.242Z,7.70
2024-02-03T07:30:13.988Z,7.80
2024-02-03T07:32:44.053Z,7.90
2024-02-03T07:35:13.861Z,7.80
2024-02-03T07:37:42.637Z,7.90
2024-02-03T07:40:11.910Z,7.90
2024-02-03T07:42:40.577Z,8.00
2024-02-03T07:45:12.671Z,8.10
2024-02-03T07:47:41.365Z,8.20
2024-02-03T07:50:10.640Z,8.20
2024-02-03T07:52:39.217Z,8.20
2024-02-03T07:55:08.180Z,8.20
2024-02-03T07:57:38.353Z,8.20
2024-02-03T08:00:08.549Z,8.20
2024-02-03T08:02:38.894Z,8.20
2024-02-03T08:05:07.998Z,8.20
2024-02-03T08:07:37.675Z,8.10
2024-02-03T08:10:06.684Z,8.10
2024-02-03T08:12:35.214Z,8.10
2024-02-03T08:15:03.861Z,8.00
2024-02-03T08:17:32.593Z,8.00
2024-02-03T08:20:09.524Z,8.00
2024-02-03T08:22:39.595Z,7.90
2024-02-03T08:25:08.688Z,7.90
2024-02-03T08:27:37.361Z,7.90
2024-02-03T08:30:06.681Z,7.90
2024-02-03T08:32:35.379Z,7.90
2024-02-03T08:37:37.041Z,7.90
2024-02-03T08:40:06.581Z,7.90
2024-02-03T08:42:35.333Z,7.90
2024-02-03T08:45:04.169Z,7.90
2024-02-03T08:47:33.097Z,7.80
2024-02-03T08:50:01.634Z,7.90
2024-02-03T08:52:31.642Z,7.90
2024-02-03T08:55:01.442Z,7.90
2024-02-03T08:57:30.077Z,7.90
2024-02-03T08:59:58.667Z,8.00
2024-02-03T09:02:27.348Z,8.00
2024-02-03T09:04:55.542Z,8.10
2024-02-03T09:07:23.774Z,8.20
2024-02-03T09:09:53.386Z,8.20
2024-02-03T09:12:21.621Z,8.30
2024-02-03T09:14:50.194Z,8.30
2024-02-03T09:17:18.382Z,8.30
2024-02-03T09:19:46.729Z,8.30
2024-02-03T09:22:15.297Z,8.40
2024-02-03T09:24:43.680Z,8.40
2024-02-03T09:27:13.480Z,8.40
2024-02-03T09:29:42.422Z,8.40
2024-02-03T09:32:10.649Z,8.40
2024-02-03T09:34:38.867Z,8.40
2024-02-03T09:39:38.560Z,8.20
2024-02-03T09:42:07.235Z,8.20
2024-02-03T09:44:37.293Z,8.20
2024-02-03T09:47:05.613Z,8.20
2024-02-03T09:49:33.982Z,8.10
2024-02-03T09:52:03.073Z,8.10
2024-02-03T09:54:31.304Z,8.20
2024-02-03T09:56:59.545Z,8.20
2024-02-03T09:59:27.741Z,8.30
2024-02-03T10:01:57.403Z,8.40
2024-02-03T10:04:25.766Z,8.40
2024-02-03T10:07:01.602Z,8.30
2024-02-03T10:12:21.790Z,8.30
2024-02-03T10:15:00.193Z,8.40
2024-02-03T10:17:29.813Z,8.50
2024-02-03T10:19:58.097Z,8.50
2024-02-03T10:22:28.105Z,8.50
2024-02-03T10:24:59.639Z,8.60
2024-02-03T10:27:27.949Z,8.70
2024-02-03T10:29:56.670Z,8.70
2024-02-03T10:32:24.968Z,8.70
2024-02-03T10:34:56.076Z,8.70
2024-02-03T10:37:24.611Z,8.70
2024-02-03T10:39:52.911Z,8.70
2024-02-03T10:42:22.997Z,8.80
2024-02-03T10:44:51.844Z,8.80
2024-02-03T10:47:21.955Z,8.80
2024-02-03T10:49:50.528Z,8.90
2024-02-03T10:52:21.897Z,8.80
2024-02-03T10:54:53.496Z,8.80
2024-02-03T10:57:21.965Z,8.80
2024-02-03T10:59:50.294Z,8.70
2024-02-03T11:02:19.157Z,8.60
2024-02-03T11:04:51.086Z,8.70
2024-02-03T11:07:24.860Z,8.70
2024-02-03T11:09:54.139Z,8.70
2024-02-03T11:12:22.571Z,8.70
2024-02-03T11:14:50.778Z,8.70
2024-02-03T11:17:18.947Z,8.70
2024-02-03T11:19:48.013Z,8.70
2024-02-03T11:22:17.078Z,8.70
2024-02-03T11:24:46.622Z,8.60
2024-02-03T11:27:14.878Z,8.50
2024-02-03T11:29:43.114Z,8.40
2024-02-03T11:32:12.009Z,8.30
2024-02-03T11:34:41.896Z,8.20
2024-02-03T11:37:15.051Z,8.30
2024-02-03T11:39:43.387Z,8.30
2024-02-03T11:42:13.069Z,8.30
2024-02-03T11:44:48.388Z,8.40
2024-02-03T11:47:20.165Z,8.50
2024-02-03T11:49:48.620Z,8.50
2024-02-03T11:52:17.330Z,8.50
2024-02-03T11:54:45.551Z,8.50
2024-02-03T11:57:15.251Z,8.50
2024-02-03T11:59:43.515Z,8.50
2024-02-03T12:02:13.287Z,8.50
2024-02-03T12:04:41.534Z,8.50
2024-02-03T12:07:09.723Z,8.50
2024-02-03T12:09:38.069Z,8.60
2024-02-03T12:12:06.605Z,8.80
2024-02-03T12:14:36.244Z,8.90
2024-02-03T12:17:04.587Z,9.00
2024-02-03T12:19:33.316Z,9.10
2024-02-03T12:22:01.771Z,9.10
2024-02-03T12:24:30.099Z,9.20
2024-02-03T12:26:58.394Z,9.20
2024-02-03T12:29:26.719Z,9.30
2024-02-03T12:31:56.295Z,9.20
2024-02-03T12:34:30.264Z,9.20
2024-02-03T12:36:59.450Z,9.20
2024-02-03T12:39:27.941Z,9.20
2024-02-03T12:41:56.164Z,9.20
2024-02-03T12:44:24.392Z,9.20
2024-02-03T12:46:52.677Z,9.20
2024-02-03T12:49:22.631Z,9.20
2024-02-03T12:51:51.589Z,9.20
2024-02-03T12:54:19.857Z,9.10
2024-02-03T12:56:48.063Z,9.20
2024-02-03T12:59:16.371Z,9.20
2024-02-03T13:01:44.615Z,9.20
2024-02-03T13:04:13.449Z,9.20
2024-02-03T13:06:43.123Z,9.20
2024-02-03T13:09:12.993Z,9.30
2024-02-03T13:11:41.397Z,9.20
2024-02-03T13:14:09.602Z,9.20
2024-02-03T13:16:37.869Z,9.20
2024-02-03T13:19:06.226Z,9.20
2024-02-03T13:21:34.657Z,9.20
2024-02-03T13:24:04.524Z,9.10
2024-02-03T13:26:32.725Z,9.00
2024-02-03T13:29:01.312Z,9.00
2024-02-03T13:31:29.518Z,9.00
2024-02-03T13:33:58.081Z,9.00
2024-02-03T13:36:26.389Z,9.00
2024-02-03T13:38:54.830Z,9.00
2024-02-03T13:41:24.924Z,9.00
2024-02-03T13:43:53.110Z,9.00
2024-02-03T13:46:21.340Z,9.00
2024-02-03T13:48:49.700Z,9.00
2024-02-03T13:51:18.075Z,9.00
2024-02-03T13:53:46.351Z,9.10
2024-02-03T13:56:14.532Z,9.10
2024-02-03T13:58:44.069Z,9.10
2024-02-03T14:01:12.494Z,9.10
2024-02-03T14:03:40.883Z,9.10
2024-02-03T14:06:09.260Z,9.10
2024-02-03T14:08:37.462Z,9.20
2024-02-03T14:11:05.790Z,9.20
2024-02-03T14:13:34.213Z,9.10
2024-02-03T14:16:04.006Z,9.00
2024-02-03T14:18:32.649Z,9.00
2024-02-03T14:21:01.191Z,8.90
2024-02-03T14:23:29.753Z,8.90
2024-02-03T14:25:57.948Z,8.80
2024-02-03T14:28:26.148Z,8.80
2024-02-03T14:30:54.456Z,8.80
2024-02-03T14:33:24.519Z,8.70
2024-02-03T14:35:53.870Z,8.70
2024-02-03T14:38:22.362Z,8.70
2024-02-03T14:40:53.334Z,8.60
2024-02-03T14:43:21.586Z,8.60
2024-02-03T14:45:49.776Z,8.60
2024-02-03T14:48:18.090Z,8.60
2024-02-03T14:50:47.830Z,8.50
2024-02-03T14:53:16.097Z,8.50
2024-02-03T14:55:44.308Z,8.40
2024-02-03T14:58:12.493Z,8.30
2024-02-03T15:00:40.755Z,8.20
2024-02-03T15:03:09.120Z,8.20
2024-02-03T15:05:37.345Z,8.20
2024-02-03T15:08:07.308Z,8.20
2024-02-03T15:10:35.502Z,8.10
2024-02-03T15:13:03.905Z,8.20
2024-02-03T15:15:32.224Z,8.20
2024-02-03T15:18:01.240Z,8.20
2024-02-03T15:20:29.749Z,8.20
2024-02-03T15:22:59.629Z,8.30
2024-02-03T15:25:29.190Z,8.30
2024-02-03T15:27:57.500Z,8.30
2024-02-03T15:30:25.875Z,8.30
2024-02-03T15:32:54.208Z,8.30
2024-02-03T15:35:22.472Z,8.40
2024-02-03T15:37:50.776Z,8.40
2024-02-03T15:40:19.029Z,8.40
2024-02-03T15:42:55.593Z,8.40
2024-02-03T15:45:26.853Z,8.40
2024-02-03T15:47:55.307Z,8.30
2024-02-03T15:50:23.836Z,8.30
2024-02-03T15:52:52.369Z,8.20
2024-02-03T15:55:20.851Z,8.20
2024-02-03T15:57:50.566Z,8.20
2024-02-03T16:00:19.983Z,8.20
2024-02-03T16:02:48.247Z,8.20
2024-02-03T16:05:16.752Z,8.20
2024-02-03T16:07:45.097Z,8.20
2024-02-03T16:10:14.165Z,8.20
2024-02-03T16:12:42.996Z,8.20
2024-02-03T16:15:12.897Z,8.20
2024-02-03T16:17:41.196Z,8.20
2024-02-03T16:20:12.778Z,8.20
2024-02-03T16:22:43.418Z,8.30
2024-02-03T16:25:11.844Z,8.30
2024-02-03T16:27:42.775Z,8.40
2024-02-03T16:30:16.728Z,8.40
2024-02-03T16:32:46.302Z,8.40
2024-02-03T16:35:14.824Z,8.40
2024-02-03T16:37:43.139Z,8.40
2024-02-03T16:40:12.839Z,8.40
2024-02-03T16:42:41.167Z,8.40
2024-02-03T16:45:10.152Z,8.30
2024-02-03T16:47:40.744Z,8.30
2024-02-03T16:50:09.250Z,8.30
2024-02-03T16:52:42.081Z,8.30
2024-02-03T16:55:10.296Z,8.30
2024-02-03T16:57:38.538Z,8.30
2024-02-03T17:00:07.638Z,8.30
2024-02-03T17:02:35.943Z,8.30
2024-02-03T17:05:05.933Z,8.30
2024-02-03T17:07:35.119Z,8.30
2024-02-03T17:10:03.481Z,8.30
2024-02-03T17:12:31.797Z,8.30
2024-02-03T17:15:00.146Z,8.30
2024-02-03T17:17:28.314Z,8.30
2024-02-03T17:19:56.611Z,8.20
2024-02-03T17:22:27.224Z,8.20
2024-02-03T17:24:56.501Z,8.30
2024-02-03T17:27:24.895Z,8.20
2024-02-03T17:29:53.108Z,8.20
2024-02-03T17:32:25.334Z,8.20
2024-02-03T17:34:54.045Z,8.20
2024-02-03T17:37:22.319Z,8.20
2024-02-03T17:39:52.056Z,8.20
2024-02-03T17:42:20.269Z,8.20
2024-02-03T17:44:48.469Z,8.20
2024-02-03T17:47:16.712Z,8.30
2024-02-03T17:49:45.098Z,8.30
2024-02-03T17:52:13.338Z,8.30
2024-02-03T17:54:41.776Z,8.30
2024-02-03T17:57:11.413Z,8.30
2024-02-03T17:59:39.593Z,8.30
2024-02-03T18:02:07.803Z,8.30
2024-02-03T18:04:36.064Z,8.30
2024-02-03T18:07:04.392Z,8.30
2024-02-03T18:09:32.590Z,8.40
2024-02-03T18:12:00.813Z,8.30
2024-02-03T18:14:30.388Z,8.40
2024-02-03T18:17:00.770Z,8.50
2024-02-03T18:19:29.041Z,8.50
2024-02-03T18:21:57.441Z,8.50
2024-02-03T18:24:27.387Z,8.50
2024-02-03T18:26:55.687Z,8.50
2024-02-03T18:29:23.894Z,8.50
2024-02-03T18:31:53.973Z,8.50
2024-02-03T18:34:22.407Z,8.50
2024-02-03T18:36:50.726Z,8.50
2024-02-03T18:39:19.021Z,8.60
2024-02-03T18:41:47.234Z,8.60
2024-02-03T18:44:15.584Z,8.60
2024-02-03T18:46:44.033Z,8.60
2024-02-03T18:49:13.945Z,8.60
2024-02-03T18:51:42.359Z,8.60
2024-02-03T18:54:13.760Z,8.70
2024-02-03T18:56:41.913Z,8.70
2024-02-03T18:59:10.149Z,8.70
2024-02-03T19:01:38.523Z,8.70
2024-02-03T19:04:07.004Z,8.70
2024-02-03T19:06:36.665Z,8.70
2024-02-03T19:09:05.268Z,8.70
2024-02-03T19:11:33.404Z,8.70
2024-02-03T19:14:01.548Z,8.70
2024-02-03T19:16:29.819Z,8.70
2024-02-03T19:18:58.057Z,8.60
2024-02-03T19:21:26.943Z,8.60
2024-02-03T19:23:56.553Z,8.60
2024-02-03T19:26:24.917Z,8.60
2024-02-03T19:28:53.334Z,8.60
2024-02-03T19:31:21.707Z,8.60
2024-02-03T19:33:50.820Z,8.60
2024-02-03T19:36:19.394Z,8.70
2024-02-03T19:38:47.884Z,8.70
2024-02-03T19:41:18.288Z,8.70
2024-02-03T19:43:46.931Z,8.70
2024-02-03T19:46:17.431Z,8.70
2024-02-03T19:48:45.824Z,8.70
2024-02-03T19:51:14.251Z,8.70
2024-02-03T19:53:42.676Z,8.70
2024-02-03T19:56:11.159Z,8.70
2024-02-03T19:58:41.085Z,8.60
2024-02-03T20:01:09.831Z,8.60
2024-02-03T20:03:38.407Z,8.60
2024-02-03T20:06:07.563Z,8.50
2024-02-03T20:08:36.069Z,8.40
2024-02-03T20:11:04.608Z,8.30
2024-02-03T20:13:33.429Z,8.20
2024-02-03T20:16:05.581Z,8.20
2024-02-03T20:18:34.542Z,8.20
2024-02-03T20:21:03.106Z,8.20
2024-02-03T20:23:31.534Z,8.30
2024-02-03T20:26:00.012Z,8.30
2024-02-03T20:28:30.503Z,8.30
2024-02-03T20:30:59.182Z,8.30
2024-02-03T20:33:28.880Z,8.40
2024-02-03T20:35:57.343Z,8.40
2024-02-03T20:38:25.665Z,8.40
2024-02-03T20:40:53.855Z,8.40
2024-02-03T20:43:24.513Z,8.30
2024-02-03T20:45:55.012Z,8.30
2024-02-03T20:48:23.613Z,8.30
2024-02-03T20:50:53.622Z,8.30
2024-02-03T20:53:22.492Z,8.20
2024-02-03T20:55:50.874Z,8.20
2024-02-03T20:58:20.074Z,8.20
2024-02-03T21:00:48.632Z,8.20
2024-02-03T21:03:16.979Z,8.20
2024-02-03T21:05:45.288Z,8.20
2024-02-03T21:08:17.511Z,8.20
2024-02-03T21:10:46.071Z,8.20
2024-02-03T21:13:17.624Z,8.20
2024-02-03T21:15:47.555Z,8.30
2024-02-03T21:18:17.762Z,8.20
2024-02-03T21:20:46.512Z,8.20
2024-02-03T21:23:16.294Z,8.30
2024-02-03T21:25:46.523Z,8.30
2024-02-03T21:28:14.770Z,8.30
2024-02-03T21:30:43.303Z,8.20
2024-02-03T21:33:11.830Z,8.30
2024-02-03T21:35:40.459Z,8.30
2024-02-03T21:38:08.802Z,8.30
2024-02-03T21:40:38.465Z,8.30
2024-02-03T21:43:06.749Z,8.30
2024-02-03T21:45:35.109Z,8.30
2024-02-03T21:48:03.535Z,8.30
2024-02-03T21:50:32.834Z,8.30
2024-02-03T21:53:01.007Z,8.30
2024-02-03T21:55:29.164Z,8.30
2024-02-03T21:57:58.905Z,8.30
2024-02-03T22:00:27.395Z,8.40
2024-02-03T22:02:55.710Z,8.30
2024-02-03T22:05:24.017Z,8.40
2024-02-03T22:07:52.573Z,8.40
2024-02-03T22:10:20.778Z,8.40
2024-02-03T22:12:48.967Z,8.40
2024-02-03T22:15:18.701Z,8.40
2024-02-03T22:17:46.942Z,8.40
2024-02-03T22:20:15.163Z,8.40
2024-02-03T22:22:43.407Z,8.40
2024-02-03T22:25:11.703Z,8.30
2024-02-03T22:27:40.406Z,8.20
2024-02-03T22:30:11.922Z,8.20
2024-02-03T22:32:41.589Z,8.20
2024-02-03T22:35:10.109Z,8.20
2024-02-03T22:37:38.398Z,8.20
2024-02-03T22:40:07.423Z,8.20
2024-02-03T22:42:35.653Z,8.20
2024-02-03T22:45:04.164Z,8.20
2024-02-03T22:47:32.711Z,8.20
2024-02-03T22:50:03.092Z,8.20
2024-02-03T22:52:31.416Z,8.20
2024-02-03T22:54:59.674Z,8.20
2024-02-03T22:57:27.920Z,8.20
2024-02-03T22:59:56.153Z,8.20
2024-02-03T23:02:24.379Z,8.30
2024-02-03T23:04:52.666Z,8.30
2024-02-03T23:07:22.228Z,8.20
2024-02-03T23:09:50.566Z,8.20
2024-02-03T23:12:18.957Z,8.20
2024-02-03T23:14:47.577Z,8.20
2024-02-03T23:17:15.765Z,8.20
2024-02-03T23:19:44.062Z,8.20
2024-02-03T23:22:12.670Z,8.20
2024-02-03T23:24:42.298Z,8.30
2024-02-03T23:27:12.062Z,8.20
2024-02-03T23:29:40.250Z,8.20
2024-02-03T23:32:08.643Z,8.20
2024-02-03T23:34:36.923Z,8.30
2024-02-03T23:37:05.606Z,8.30
2024-02-03T23:39:33.932Z,8.30
2024-02-03T23:42:03.491Z,8.30
2024-02-03T23:44:31.672Z,8.30
2024-02-03T23:47:01.648Z,8.30
2024-02-03T23:49:29.916Z,8.30
2024-02-03T23:51:58.120Z,8.30
2024-02-03T23:54:26.359Z,8.30
2024-02-03T23:56:54.587Z,8.30
2024-02-03T23:59:24.197Z,8.30
